Time;durP1;ratioP1;P1;durP2;ratioP2;P2;SDS_P1;SDS_P2;PMS_P1;PMS_P2;Temp;Humidity;BMP_temperature;BMP_pressure;BME280_temperature;BME280_humidity;BME280_pressure;Samples;Min_cycle;Max_cycle;Signal;HPM_P1;HPM_P2
2023/04/13 00:01:31;;;;;;;1.92;0.90;;;;;;;10.82;56.60;99404.59;5115790;28;20050;-67
2023/04/13 00:04:01;;;;;;;2.58;0.80;;;;;;;10.83;57.04;99398.97;5116328;28;20051;-67
2023/04/13 00:06:30;;;;;;;2.38;0.70;;;;;;;10.85;56.78;99401.41;5122241;28;20078;-67
2023/04/13 00:08:59;;;;;;;2.58;1.20;;;;;;;10.85;56.70;99398.72;5106420;28;20076;-67
2023/04/13 00:11:28;;;;;;;2.42;0.93;;;;;;;10.82;56.91;99394.66;5106050;28;20103;-67
2023/04/13 00:13:57;;;;;;;3.53;1.33;;;;;;;10.82;56.81;99396.53;5102925;28;20373;-67
2023/04/13 00:16:30;;;;;;;2.00;0.80;;;;;;;10.80;56.71;99386.03;5106236;28;20071;-67
2023/04/13 00:18:58;;;;;;;2.13;1.10;;;;;;;10.79;56.84;99381.75;5115268;28;20047;-67
2023/04/13 00:21:26;;;;;;;3.47;1.02;;;;;;;10.78;57.10;99388.19;5113273;28;20135;-67
2023/04/13 00:23:54;;;;;;;1.20;0.77;;;;;;;10.77;56.98;99394.63;5110375;28;20048;-67
2023/04/13 00:26:24;;;;;;;1.42;0.60;;;;;;;10.76;57.03;99391.13;5119428;28;20044;-67
2023/04/13 00:28:51;;;;;;;2.45;1.45;;;;;;;10.78;56.96;99388.19;5118062;28;20054;-67
2023/04/13 00:31:21;;;;;;;1.67;0.73;;;;;;;10.78;57.02;99393.56;5109753;28;20179;-67
2023/04/13 00:33:49;;;;;;;1.48;0.75;;;;;;;10.76;56.99;99380.38;5119789;28;20067;-67
2023/04/13 00:36:17;;;;;;;2.13;0.90;;;;;;;10.75;57.19;99388.69;5116096;28;20103;-67
2023/04/13 00:38:45;;;;;;;2.45;0.88;;;;;;;10.74;57.19;99389.75;5115321;28;20047;-67
2023/04/13 00:41:13;;;;;;;4.68;1.15;;;;;;;10.72;57.53;99395.41;5114498;28;20078;-67
2023/04/13 00:43:41;;;;;;;4.40;0.90;;;;;;;10.71;57.43;99390.28;5113702;28;20058;-67
2023/04/13 00:46:09;;;;;;;4.13;0.90;;;;;;;10.81;57.83;99398.41;5118412;28;20067;-67
2023/04/13 00:48:38;;;;;;;2.97;0.98;;;;;;;10.75;57.57;99394.06;5111331;28;20051;-67
2023/04/13 00:51:08;;;;;;;3.00;0.90;;;;;;;10.73;57.89;99398.91;5099392;28;20126;-67
2023/04/13 00:53:36;;;;;;;1.75;1.40;;;;;;;10.71;57.79;99382.22;5102155;28;20075;-67
2023/04/13 00:56:04;;;;;;;3.28;1.20;;;;;;;10.72;57.83;99397.28;5095230;28;20552;-67
2023/04/13 00:58:32;;;;;;;1.13;0.60;;;;;;;10.70;57.84;99394.84;5115537;28;20099;-67
2023/04/13 01:01:00;;;;;;;3.90;0.93;;;;;;;10.70;57.90;99389.47;5115407;28;20055;-67
2023/04/13 01:03:28;;;;;;;4.88;0.93;;;;;;;10.68;57.91;99393.50;5115325;28;20054;-67
2023/04/13 01:06:09;;;;;;;2.83;0.80;;;;;;;10.61;57.82;99380.28;5119727;28;20044;-67
2023/04/13 01:08:44;;;;;;;3.45;1.48;;;;;;;10.69;57.89;99395.09;5112431;28;20147;-67
2023/04/13 01:11:19;;;;;;;1.75;1.00;;;;;;;10.68;57.95;99388.13;5109351;28;20086;-67
2023/04/13 01:13:52;;;;;;;4.00;1.17;;;;;;;10.66;58.07;99392.94;5117834;28;20127;-67
2023/04/13 01:16:21;;;;;;;2.78;1.15;;;;;;;10.63;58.22;99390.75;5116715;28;20477;-67
2023/04/13 01:18:53;;;;;;;1.73;0.90;;;;;;;10.64;58.33;99387.00;5107795;28;20040;-67
2023/04/13 01:21:25;;;;;;;2.80;1.10;;;;;;;10.65;58.07;99384.06;5118278;28;20062;-67
2023/04/13 01:24:01;;;;;;;3.25;1.02;;;;;;;10.64;58.20;99395.88;5114650;28;20058;-67
2023/04/13 01:26:54;;;;;;;3.30;1.08;;;;;;;10.62;58.48;99392.63;5113159;28;20071;-67
2023/04/13 01:29:24;;;;;;;5.22;1.10;;;;;;;10.62;58.44;99387.25;5116000;28;20378;-67
2023/04/13 01:31:53;;;;;;;1.35;0.80;;;;;;;10.59;58.34;99389.66;5119551;28;20115;-67
2023/04/13 01:34:22;;;;;;;4.95;2.20;;;;;;;10.55;58.73;99384.00;5118904;28;20343;-67
2023/04/13 01:36:50;;;;;;;2.65;1.05;;;;;;;10.57;58.73;99391.78;5117001;28;20078;-67
2023/04/13 01:39:21;;;;;;;2.88;0.90;;;;;;;10.59;58.52;99392.34;5115766;28;20036;-67
2023/04/13 01:41:49;;;;;;;7.93;2.13;;;;;;;10.58;58.75;99386.16;5117272;28;20075;-67
2023/04/13 01:44:17;;;;;;;3.40;1.30;;;;;;;10.60;58.98;99402.03;5118951;28;20111;-67
2023/04/13 01:46:53;;;;;;;4.18;1.33;;;;;;;10.61;58.50;99398.28;5113189;28;20071;-67
2023/04/13 01:49:22;;;;;;;2.20;1.00;;;;;;;10.57;58.96;99403.34;5115996;28;20048;-67
2023/04/13 01:51:52;;;;;;;4.00;1.25;;;;;;;10.56;59.36;99407.09;5116690;28;20048;-67
2023/04/13 01:54:27;;;;;;;2.22;1.02;;;;;;;10.56;59.27;99403.59;5118977;28;20351;-66
2023/04/13 01:56:58;;;;;;;3.47;1.00;;;;;;;10.46;59.42;99388.22;5114445;28;20039;-67
2023/04/13 01:59:27;;;;;;;5.63;2.50;;;;;;;10.54;59.65;99408.44;5114958;28;20128;-67
2023/04/13 02:01:57;;;;;;;2.85;0.90;;;;;;;10.56;59.20;99414.34;5118306;28;20150;-67
2023/04/13 02:04:25;;;;;;;5.38;1.42;;;;;;;10.55;59.59;99415.41;5119816;28;20188;-67
2023/04/13 02:06:53;;;;;;;3.85;1.63;;;;;;;10.55;59.75;99418.09;5112925;28;20131;-67
2023/04/13 02:09:20;;;;;;;4.07;1.05;;;;;;;10.52;59.64;99432.84;5118692;28;20051;-67
2023/04/13 02:11:48;;;;;;;4.93;1.15;;;;;;;10.54;59.69;99425.34;5116831;28;20135;-67
2023/04/13 02:14:16;;;;;;;3.50;1.35;;;;;;;10.55;59.70;99443.09;5108307;28;20116;-67
2023/04/13 02:16:44;;;;;;;5.40;1.70;;;;;;;10.54;59.62;99436.09;5109314;28;20368;-67
2023/04/13 02:19:13;;;;;;;4.10;1.00;;;;;;;10.54;59.91;99454.09;5105971;28;20062;-67
2023/04/13 02:21:41;;;;;;;3.78;1.23;;;;;;;10.52;59.79;99454.34;5114193;28;20176;-67
2023/04/13 02:24:09;;;;;;;2.88;0.75;;;;;;;10.51;59.93;99463.47;5115104;28;20074;-67
2023/04/13 02:26:37;;;;;;;4.47;1.20;;;;;;;10.51;60.10;99468.03;5115145;28;20099;-67
2023/04/13 02:29:05;;;;;;;7.10;1.88;;;;;;;10.50;60.03;99477.97;5117728;28;20111;-67
2023/04/13 02:31:33;;;;;;;7.63;1.60;;;;;;;10.49;60.21;99476.34;5119730;28;20057;-67
2023/04/13 02:34:01;;;;;;;3.45;1.00;;;;;;;10.50;59.83;99487.91;5113915;28;20133;-66
2023/04/13 02:36:30;;;;;;;4.15;1.35;;;;;;;10.51;59.72;99487.66;5117096;28;20032;-67
2023/04/13 02:38:59;;;;;;;4.00;1.42;;;;;;;10.50;59.60;99499.44;5119894;28;20116;-67
2023/04/13 02:41:27;;;;;;;2.22;1.10;;;;;;;10.48;59.99;99498.09;5121252;28;20046;-67
2023/04/13 02:43:55;;;;;;;3.08;1.13;;;;;;;10.49;59.97;99497.03;5122677;28;20068;-67
2023/04/13 02:46:23;;;;;;;4.13;1.42;;;;;;;10.47;60.11;99501.84;5114215;28;20516;-67
2023/04/13 02:48:51;;;;;;;5.45;1.48;;;;;;;10.44;60.07;99498.59;5120391;28;20058;-67
2023/04/13 02:51:19;;;;;;;3.92;1.17;;;;;;;10.43;60.24;99502.34;5121432;28;20070;-67
2023/04/13 02:53:48;;;;;;;3.03;1.13;;;;;;;10.43;60.16;99509.59;5119696;28;20107;-67
2023/04/13 02:56:16;;;;;;;2.30;0.57;;;;;;;10.42;60.07;99516.84;5120917;28;20099;-67
2023/04/13 02:58:44;;;;;;;5.85;2.28;;;;;;;10.41;60.41;99511.72;5117484;28;20048;-67
2023/04/13 03:01:12;;;;;;;1.95;0.90;;;;;;;10.39;60.19;99517.38;5116545;28;20075;-67
2023/04/13 03:03:40;;;;;;;7.68;1.10;;;;;;;10.38;60.22;99521.13;5123130;28;20079;-67
2023/04/13 03:06:09;;;;;;;2.45;1.05;;;;;;;10.40;59.94;99518.97;5098023;28;20079;-67
2023/04/13 03:08:36;;;;;;;2.55;1.23;;;;;;;10.39;60.30;99519.25;5120564;28;20079;-67
2023/04/13 03:11:08;;;;;;;4.70;1.20;;;;;;;10.38;60.06;99523.81;5102809;28;20047;-67
2023/04/13 03:13:36;;;;;;;4.47;1.02;;;;;;;10.37;60.30;99537.50;5108714;28;20177;-67
2023/04/13 03:16:04;;;;;;;4.28;1.02;;;;;;;10.37;60.46;99535.63;5115913;28;20051;-67
2023/04/13 03:18:32;;;;;;;4.35;1.23;;;;;;;10.36;60.29;99541.25;5106152;28;20135;-66
2023/04/13 03:21:00;;;;;;;2.10;0.93;;;;;;;10.35;60.20;99553.03;5106619;28;20107;-67
2023/04/13 03:23:28;;;;;;;3.70;1.08;;;;;;;10.34;60.08;99562.97;5100745;28;20076;-67
2023/04/13 03:25:55;;;;;;;3.30;1.67;;;;;;;10.34;60.22;99568.34;5114421;28;20108;-67
2023/04/13 03:28:25;;;;;;;3.78;1.35;;;;;;;10.33;60.30;99566.72;5114444;28;20054;-67
2023/04/13 03:30:52;;;;;;;5.22;1.20;;;;;;;10.32;60.66;99569.66;5115747;28;20040;-67
2023/04/13 03:33:20;;;;;;;2.90;0.98;;;;;;;10.31;60.67;99581.47;5114408;28;20055;-67
2023/04/13 03:35:48;;;;;;;2.70;1.20;;;;;;;10.31;60.45;99590.34;5095226;28;20068;-67
2023/04/13 03:38:16;;;;;;;3.67;1.00;;;;;;;10.28;60.86;99593.50;5120117;28;20039;-67
2023/04/13 03:40:44;;;;;;;3.00;1.70;;;;;;;10.28;61.10;99603.44;5119609;28;20154;-67
2023/04/13 03:43:12;;;;;;;4.45;1.15;;;;;;;10.24;61.32;99600.44;5119693;28;20047;-67
2023/04/13 03:45:41;;;;;;;3.80;1.15;;;;;;;10.25;60.79;99595.88;5117157;28;20107;-67
2023/04/13 03:48:09;;;;;;;3.50;1.10;;;;;;;10.26;60.90;99605.56;5108688;28;20043;-65
2023/04/13 03:50:37;;;;;;;3.60;1.25;;;;;;;10.24;61.20;99603.13;5107509;28;20071;-65
2023/04/13 03:53:05;;;;;;;2.42;1.20;;;;;;;10.25;60.91;99609.31;5120933;28;20263;-65
2023/04/13 03:55:32;;;;;;;3.15;1.25;;;;;;;10.27;60.70;99613.38;5121546;28;20109;-65
2023/04/13 03:58:00;;;;;;;4.45;1.27;;;;;;;10.25;60.64;99612.81;5113965;28;20107;-66
2023/04/13 04:00:28;;;;;;;3.28;1.17;;;;;;;10.25;60.79;99623.56;5121624;28;20181;-65
2023/04/13 04:02:57;;;;;;;1.45;0.93;;;;;;;10.24;60.83;99621.13;5122305;28;20043;-66
2023/04/13 04:05:25;;;;;;;4.03;1.40;;;;;;;10.23;61.10;99631.03;5108394;28;20420;-65
2023/04/13 04:07:53;;;;;;;3.03;1.17;;;;;;;10.22;61.04;99629.41;5116688;28;20104;-65
2023/04/13 04:10:21;;;;;;;4.13;1.23;;;;;;;10.22;60.98;99637.47;5115518;28;20469;-65
2023/04/13 04:12:50;;;;;;;4.55;1.40;;;;;;;10.22;61.15;99648.22;5117269;28;20122;-65
2023/04/13 04:15:18;;;;;;;4.35;1.40;;;;;;;10.21;61.27;99646.59;5121364;28;20057;-65
2023/04/13 04:17:45;;;;;;;3.78;1.33;;;;;;;10.20;60.92;99658.41;5111879;28;20064;-65
2023/04/13 04:20:15;;;;;;;5.03;1.33;;;;;;;10.20;61.08;99655.72;5120171;28;20051;-65
2023/04/13 04:22:43;;;;;;;5.57;1.50;;;;;;;10.20;60.96;99663.75;5099661;28;20429;-65
2023/04/13 04:25:11;;;;;;;4.32;1.40;;;;;;;10.20;60.89;99660.25;5109574;28;20044;-65
2023/04/13 04:27:39;;;;;;;4.53;1.30;;;;;;;10.19;61.29;99654.06;5108072;28;20454;-66
2023/04/13 04:30:09;;;;;;;5.00;1.60;;;;;;;10.17;60.98;99661.53;5104116;28;20040;-66
2023/04/13 04:32:39;;;;;;;2.88;1.40;;;;;;;10.19;60.96;99672.84;5118451;28;20040;-67
2023/04/13 04:35:08;;;;;;;5.03;1.27;;;;;;;10.18;60.88;99673.09;5115059;28;20048;-67
2023/04/13 04:37:37;;;;;;;3.75;1.90;;;;;;;10.17;61.15;99683.03;5120238;28;20349;-66
2023/04/13 04:40:08;;;;;;;3.53;1.38;;;;;;;10.16;60.76;99681.41;5118287;28;20226;-66
2023/04/13 04:42:37;;;;;;;2.88;1.10;;;;;;;10.16;61.00;99696.69;5117856;28;20107;-66
2023/04/13 04:45:05;;;;;;;3.22;1.40;;;;;;;10.15;61.10;99697.75;5119919;28;20131;-66
2023/04/13 04:47:40;;;;;;;2.75;1.30;;;;;;;10.11;60.81;99700.13;5117522;28;20059;-66
2023/04/13 04:50:09;;;;;;;4.97;1.38;;;;;;;10.13;60.65;99698.00;5113936;28;20036;-66
2023/04/13 04:52:39;;;;;;;4.60;1.50;;;;;;;10.11;60.74;99697.44;5117755;28;20443;-65
2023/04/13 04:55:07;;;;;;;3.22;1.75;;;;;;;10.12;60.46;99707.13;5110587;28;20070;-65
2023/04/13 04:57:36;;;;;;;3.92;1.30;;;;;;;10.11;60.51;99708.97;5116102;28;20439;-66
2023/04/13 05:00:09;;;;;;;2.72;1.30;;;;;;;10.12;60.60;99707.13;5116337;28;20040;-66
2023/04/13 05:02:37;;;;;;;3.72;1.15;;;;;;;10.10;60.84;99710.03;5117693;28;20119;-66
2023/04/13 05:05:05;;;;;;;3.58;1.13;;;;;;;10.10;60.61;99714.59;5108284;28;20058;-65
2023/04/13 05:07:33;;;;;;;2.97;1.63;;;;;;;10.01;60.53;99700.78;5102813;28;20048;-65
2023/04/13 05:10:02;;;;;;;3.20;1.48;;;;;;;10.09;60.81;99715.66;5105427;28;20111;-65
2023/04/13 05:12:30;;;;;;;3.35;1.45;;;;;;;10.07;60.71;99712.41;5116466;28;20496;-65
2023/04/13 05:14:58;;;;;;;2.38;1.23;;;;;;;10.07;60.70;99721.28;5117947;28;20134;-65
2023/04/13 05:17:25;;;;;;;3.13;1.50;;;;;;;10.06;61.16;99718.84;5097952;28;20081;-66
2023/04/13 05:19:53;;;;;;;3.25;1.55;;;;;;;10.07;60.51;99720.47;5114588;28;20043;-66
2023/04/13 05:22:21;;;;;;;3.33;2.22;;;;;;;10.06;60.76;99721.53;5119773;28;20500;-65
2023/04/13 05:24:49;;;;;;;2.72;1.23;;;;;;;10.05;60.94;99728.75;5119251;28;20086;-65
2023/04/13 05:27:18;;;;;;;3.90;1.20;;;;;;;10.04;60.75;99724.44;5112408;28;20043;-65
2023/04/13 05:29:46;;;;;;;5.45;2.08;;;;;;;10.04;61.01;99732.50;5099071;28;20063;-67
2023/04/13 05:32:14;;;;;;;3.22;1.17;;;;;;;9.99;60.56;99731.59;5105154;28;20044;-67
2023/04/13 05:34:42;;;;;;;2.45;1.30;;;;;;;10.03;60.93;99743.47;4756103;28;10000324;-67
2023/04/13 05:37:10;;;;;;;3.60;1.95;;;;;;;10.04;60.62;99745.13;5091947;28;20687;-66
2023/04/13 05:39:38;;;;;;;4.43;1.15;;;;;;;10.04;60.86;99748.59;5112838;28;20052;-65
2023/04/13 05:42:06;;;;;;;6.28;1.50;;;;;;;10.03;60.99;99755.03;5101422;28;20054;-64
2023/04/13 05:44:35;;;;;;;3.97;1.30;;;;;;;10.04;60.71;99756.66;5107133;28;20055;-65
2023/04/13 05:47:03;;;;;;;3.85;1.30;;;;;;;10.03;61.02;99767.66;5112504;28;20051;-63
2023/04/13 05:49:31;;;;;;;3.08;1.10;;;;;;;10.01;61.55;99762.53;5106295;28;20126;-62
2023/04/13 05:51:59;;;;;;;4.18;1.52;;;;;;;10.00;61.19;99771.63;5105091;28;20142;-62
2023/04/13 05:54:27;;;;;;;4.53;1.15;;;;;;;10.05;61.28;99776.25;5116106;28;20082;-62
2023/04/13 05:56:55;;;;;;;5.13;1.80;;;;;;;10.01;61.12;99778.63;5111710;28;20727;-63
2023/04/13 05:59:24;;;;;;;6.35;1.92;;;;;;;10.00;61.43;99782.38;5100776;28;20151;-63
2023/04/13 06:01:53;;;;;;;5.50;1.23;;;;;;;10.03;61.36;99791.81;5097564;28;20086;-62
2023/04/13 06:04:21;;;;;;;2.92;1.20;;;;;;;10.07;60.68;99793.75;5104131;28;20082;-63
2023/04/13 06:06:49;;;;;;;2.53;0.88;;;;;;;10.07;60.89;99806.38;5115911;28;20081;-62
2023/04/13 06:09:17;;;;;;;2.75;1.08;;;;;;;10.04;61.20;99814.91;5117079;28;20042;-63
2023/04/13 06:11:45;;;;;;;3.58;1.23;;;;;;;10.04;61.21;99813.03;5117791;28;20063;-66
2023/04/13 06:14:14;;;;;;;3.88;1.27;;;;;;;10.01;62.00;99824.25;5121796;28;20320;-62
2023/04/13 06:16:41;;;;;;;5.95;2.38;;;;;;;10.02;61.83;99822.38;5123241;28;20142;-62
2023/04/13 06:19:11;;;;;;;4.60;1.50;;;;;;;10.02;61.51;99825.88;5122119;28;20069;-61
2023/04/13 06:21:40;;;;;;;5.68;1.30;;;;;;;10.01;61.69;99826.94;5124033;28;20125;-61
2023/04/13 06:24:08;;;;;;;3.83;1.35;;;;;;;10.01;61.30;99832.31;5123768;28;20087;-62
2023/04/13 06:26:36;;;;;;;7.05;1.77;;;;;;;10.01;61.58;99832.31;5120511;28;20051;-62
2023/04/13 06:29:04;;;;;;;2.28;1.05;;;;;;;10.00;61.43;99836.03;5120283;28;20082;-62
2023/04/13 06:31:32;;;;;;;2.47;1.30;;;;;;;10.02;61.48;99846.53;5120843;28;20086;-62
2023/04/13 06:34:01;;;;;;;5.78;1.50;;;;;;;10.03;61.24;99848.16;5117241;28;20058;-62
2023/04/13 06:36:30;;;;;;;3.25;1.15;;;;;;;10.02;61.57;99833.13;5123940;28;20077;-62
2023/04/13 06:38:58;;;;;;;3.53;1.73;;;;;;;10.01;61.35;99845.72;5120081;28;20112;-62
2023/04/13 06:41:27;;;;;;;5.95;1.50;;;;;;;10.04;61.07;99847.94;5122295;28;20138;-62
2023/04/13 06:43:54;;;;;;;3.47;0.90;;;;;;;10.04;61.21;99842.56;5122057;28;20561;-62
2023/04/13 06:46:22;;;;;;;3.63;1.55;;;;;;;10.06;61.41;99859.25;5122213;28;20177;-62
2023/04/13 06:48:50;;;;;;;4.35;1.13;;;;;;;10.05;61.55;99860.28;5116688;28;20055;-62
2023/04/13 06:51:17;;;;;;;4.20;1.33;;;;;;;10.04;61.45;99858.66;5112427;28;20120;-62
2023/04/13 06:53:47;;;;;;;6.03;1.33;;;;;;;10.06;61.14;99867.28;5111031;28;20135;-62
2023/04/13 06:56:14;;;;;;;8.80;1.35;;;;;;;10.07;61.26;99873.47;5119723;28;20127;-62
2023/04/13 06:58:44;;;;;;;2.78;1.38;;;;;;;10.06;61.78;99874.53;5112888;28;20192;-62
2023/04/13 07:01:12;;;;;;;5.47;1.40;;;;;;;10.05;61.76;99880.97;5104137;28;20050;-61
2023/04/13 07:03:40;;;;;;;2.80;1.42;;;;;;;10.05;62.00;99897.06;5105849;28;20364;-66
2023/04/13 07:06:08;;;;;;;7.65;1.70;;;;;;;9.97;62.22;99879.47;5110788;28;20047;-62
2023/04/13 07:08:36;;;;;;;9.13;3.15;;;;;;;10.03;61.96;99893.81;5108989;28;20456;-65
2023/04/13 07:11:05;;;;;;;3.47;1.25;;;;;;;10.05;62.24;99899.75;5110543;28;20111;-64
2023/04/13 07:13:33;;;;;;;3.38;1.45;;;;;;;10.02;62.16;99901.03;5109099;28;20058;-67
2023/04/13 07:16:01;;;;;;;7.72;2.08;;;;;;;10.03;62.02;99905.34;5118069;28;20055;-66
2023/04/13 07:18:29;;;;;;;6.63;1.90;;;;;;;10.00;62.01;99905.03;5118412;28;20085;-63
2023/04/13 07:20:57;;;;;;;4.45;1.45;;;;;;;10.04;61.68;99917.72;5116932;28;20069;-66
2023/04/13 07:23:25;;;;;;;7.55;1.80;;;;;;;10.06;62.43;99917.47;5108636;28;20066;-63
2023/04/13 07:25:53;;;;;;;7.70;1.52;;;;;;;10.16;62.02;99909.63;5105832;28;20071;-64
2023/04/13 07:28:22;;;;;;;7.03;1.80;;;;;;;10.08;61.96;99926.94;5104321;28;20067;-64
2023/04/13 07:30:50;;;;;;;8.30;1.65;;;;;;;10.06;62.48;99929.03;5107111;28;20071;-64
2023/04/13 07:33:17;;;;;;;7.22;2.13;;;;;;;10.04;62.43;99931.16;5111086;28;20123;-64
2023/04/13 07:35:45;;;;;;;8.70;2.67;;;;;;;10.05;62.25;99932.78;5117629;28;20079;-65
2023/04/13 07:38:13;;;;;;;5.40;1.60;;;;;;;10.04;62.03;99938.38;5114624;28;20070;-65
2023/04/13 07:40:41;;;;;;;4.95;1.63;;;;;;;10.00;62.18;99938.06;5100787;28;20064;-71
2023/04/13 07:43:09;;;;;;;6.43;1.88;;;;;;;10.05;61.90;99948.06;5115719;28;20048;-72
2023/04/13 07:45:38;;;;;;;4.60;2.45;;;;;;;10.07;62.15;99945.97;5117510;28;20499;-64
2023/04/13 07:48:07;;;;;;;7.18;1.55;;;;;;;10.06;62.48;99961.25;5103376;28;20411;-64
2023/04/13 07:50:40;;;;;;;4.88;2.10;;;;;;;10.04;62.26;99952.63;5112678;28;20043;-64
2023/04/13 07:53:08;;;;;;;7.95;1.80;;;;;;;10.05;62.13;99959.63;5112318;28;20050;-64
2023/04/13 07:55:36;;;;;;;9.65;2.63;;;;;;;10.09;62.22;99962.63;5118928;28;20106;-65
2023/04/13 07:58:04;;;;;;;6.70;2.05;;;;;;;10.08;62.46;99966.38;5106028;28;20055;-65
2023/04/13 08:00:31;;;;;;;8.50;2.33;;;;;;;10.05;62.09;99962.31;5103544;28;20079;-66
2023/04/13 08:03:01;;;;;;;11.18;2.03;;;;;;;10.10;62.27;99967.78;5111748;28;20052;-65
2023/04/13 08:05:29;;;;;;;12.40;2.53;;;;;;;10.28;62.04;99968.66;5109177;28;20051;-63
2023/04/13 08:07:56;;;;;;;5.47;1.90;;;;;;;10.49;61.39;99972.47;5109716;28;20070;-65
2023/04/13 08:10:24;;;;;;;9.48;2.90;;;;;;;10.66;60.78;99982.19;5107947;28;20483;-64
2023/04/13 08:12:52;;;;;;;7.82;2.28;;;;;;;10.84;60.16;99989.19;5112859;28;20539;-65
2023/04/13 08:15:20;;;;;;;7.78;2.35;;;;;;;10.85;59.93;99973.88;5103575;28;20130;-68
2023/04/13 08:17:47;;;;;;;12.23;2.83;;;;;;;10.96;59.72;99995.31;5101031;28;20051;-68
2023/04/13 08:20:17;;;;;;;12.07;2.95;;;;;;;10.98;59.81;99993.19;5107425;28;20040;-67
2023/04/13 08:22:45;;;;;;;10.82;3.15;;;;;;;10.95;60.17;100001.75;5118809;28;20731;-66
2023/04/13 08:25:13;;;;;;;11.18;3.10;;;;;;;10.90;60.03;99998.16;5115835;28;20048;-67
2023/04/13 08:27:40;;;;;;;11.05;3.05;;;;;;;10.86;60.02;100008.59;5117862;28;20306;-67
2023/04/13 08:30:11;;;;;;;7.80;2.50;;;;;;;10.78;60.60;100014.38;5103842;28;20097;-66
2023/04/13 08:32:39;;;;;;;11.48;3.53;;;;;;;10.70;60.12;100018.25;5101233;28;20110;-67
2023/04/13 08:35:08;;;;;;;13.93;3.88;;;;;;;10.66;60.59;100021.69;5107047;28;20343;-66
2023/04/13 08:37:38;;;;;;;14.40;3.38;;;;;;;10.62;60.61;100039.34;5120037;28;20059;-66
2023/04/13 08:40:10;;;;;;;10.45;2.90;;;;;;;10.55;60.39;100034.13;5104116;28;20046;-66
2023/04/13 08:42:38;;;;;;;13.32;3.97;;;;;;;10.51;60.38;100034.84;5108453;28;20400;-66
2023/04/13 08:45:08;;;;;;;13.85;4.25;;;;;;;10.47;60.93;100045.25;5111101;28;20129;-67
2023/04/13 08:47:36;;;;;;;11.07;2.83;;;;;;;10.46;60.89;100040.13;5117592;28;20047;-67
2023/04/13 08:50:04;;;;;;;12.57;3.25;;;;;;;10.40;60.65;100039.25;5114032;28;20480;-66
2023/04/13 08:52:32;;;;;;;9.98;3.35;;;;;;;10.36;60.68;100060.41;5105067;28;20043;-67
2023/04/13 08:55:03;;;;;;;10.65;2.67;;;;;;;10.37;60.87;100066.59;5115098;28;20130;-66
2023/04/13 08:57:32;;;;;;;17.63;4.45;;;;;;;10.33;60.31;100055.50;5113720;27;20070;-66
2023/04/13 09:00:00;;;;;;;9.40;2.90;;;;;;;10.27;60.21;100063.69;5120791;27;20078;-67
2023/04/13 09:02:32;;;;;;;12.05;2.95;;;;;;;10.31;60.66;100078.28;5109630;28;20412;-67
2023/04/13 09:05:04;;;;;;;10.60;4.32;;;;;;;10.34;60.58;100085.88;5117536;28;20047;-66
2023/04/13 09:07:35;;;;;;;12.82;3.17;;;;;;;10.35;60.58;100080.25;5119400;28;20146;-68
2023/04/13 09:10:06;;;;;;;12.32;3.25;;;;;;;10.35;60.54;100085.63;5109488;28;20065;-66
2023/04/13 09:12:34;;;;;;;14.93;3.13;;;;;;;10.36;60.39;100094.50;5106072;28;20051;-67
2023/04/13 09:15:05;;;;;;;10.15;3.10;;;;;;;10.25;60.42;100084.59;5097149;28;20056;-66
2023/04/13 09:17:33;;;;;;;10.30;3.22;;;;;;;10.28;60.52;100102.94;5101186;28;20118;-66
2023/04/13 09:20:13;;;;;;;10.50;3.17;;;;;;;10.22;60.52;100095.81;5111795;28;20275;-66
2023/04/13 09:22:41;;;;;;;13.38;3.45;;;;;;;10.27;60.02;100109.34;5112658;28;20044;-67
2023/04/13 09:25:22;;;;;;;8.38;3.05;;;;;;;10.29;60.57;100110.75;5117944;28;20086;-66
2023/04/13 09:27:51;;;;;;;14.05;3.42;;;;;;;10.27;60.48;100109.34;5117298;28;20050;-67
2023/04/13 09:30:21;;;;;;;9.13;2.70;;;;;;;10.32;60.63;100104.91;5112459;28;20043;-67
2023/04/13 09:33:00;;;;;;;11.85;3.38;;;;;;;10.37;60.73;100115.75;5116824;28;20051;-67
2023/04/13 09:35:29;;;;;;;13.40;3.00;;;;;;;10.35;60.12;100125.91;5116545;28;20040;-66
2023/04/13 09:37:57;;;;;;;12.00;3.10;;;;;;;10.35;60.20;100128.59;5119005;28;20075;-66
2023/04/13 09:40:27;;;;;;;10.02;3.13;;;;;;;10.37;60.12;100131.88;5104737;28;20960;-66
2023/04/13 09:42:56;;;;;;;11.27;3.05;;;;;;;10.40;60.41;100149.38;5117227;28;20048;-67
2023/04/13 09:45:33;;;;;;;10.70;2.65;;;;;;;10.38;59.56;100154.97;5105576;28;20083;-66
2023/04/13 09:48:02;;;;;;;11.73;3.25;;;;;;;10.34;60.01;100151.13;5113953;28;20075;-66
2023/04/13 09:50:32;;;;;;;8.35;3.05;;;;;;;10.57;59.69;100165.53;5115866;28;20079;-67
2023/04/13 09:53:01;;;;;;;15.85;3.63;;;;;;;10.42;59.32;100174.91;5118844;28;20090;-67
2023/04/13 09:55:33;;;;;;;11.48;2.92;;;;;;;10.38;59.57;100168.41;5114415;28;20051;-67
2023/04/13 09:58:09;;;;;;;11.23;2.50;;;;;;;10.40;60.13;100177.03;5114328;28;20107;-68
2023/04/13 10:00:37;;;;;;;13.82;2.88;;;;;;;10.39;59.80;100186.16;5113617;28;20115;-66
2023/04/13 10:03:09;;;;;;;11.45;3.45;;;;;;;10.42;60.22;100190.22;5124203;28;20085;-66
2023/04/13 10:05:38;;;;;;;10.45;2.90;;;;;;;10.39;60.04;100182.66;5121082;28;20047;-68
2023/04/13 10:08:25;;;;;;;11.93;2.80;;;;;;;10.41;60.20;100185.91;5122280;28;20072;-69
2023/04/13 10:11:10;;;;;;;10.10;2.85;;;;;;;10.40;59.91;100190.44;5119241;28;20114;-71
2023/04/13 10:13:45;;;;;;;11.52;4.07;;;;;;;10.32;58.84;100206.97;5115117;28;20267;-69
2023/04/13 10:16:35;;;;;;;12.20;2.83;;;;;;;10.26;59.51;100193.66;5108144;28;20055;-66
2023/04/13 10:19:09;;;;;;;10.55;2.88;;;;;;;10.28;59.60;100191.56;5118390;28;20055;-66
2023/04/13 10:21:40;;;;;;;9.05;2.88;;;;;;;10.35;59.91;100208.38;5121557;28;20073;-66
2023/04/13 10:24:11;;;;;;;11.95;2.97;;;;;;;10.38;59.13;100200.66;5119286;28;20089;-66
2023/04/13 10:26:43;;;;;;;20.60;4.32;;;;;;;10.36;59.37;100210.81;5120222;28;20104;-67
2023/04/13 10:29:13;;;;;;;12.48;3.13;;;;;;;10.50;59.21;100214.03;5116244;28;20047;-65
2023/04/13 10:31:45;;;;;;;11.00;3.45;;;;;;;10.43;58.72;100208.78;5120670;28;20040;-66
2023/04/13 10:34:23;;;;;;;12.95;3.78;;;;;;;10.42;58.99;100211.72;5121536;28;20036;-65
2023/04/13 10:36:54;;;;;;;16.50;4.63;;;;;;;10.41;58.44;100216.25;5113023;28;20094;-65
2023/04/13 10:39:26;;;;;;;11.55;3.20;;;;;;;10.41;58.68;100218.94;5102033;28;20144;-63
2023/04/13 10:42:03;;;;;;;13.50;2.70;;;;;;;10.43;58.73;100224.09;5121029;28;20043;-64
2023/04/13 10:44:40;;;;;;;;;;;;;;;10.44;58.82;100233.78;5114995;28;20067;-65
2023/04/13 10:47:08;;;;;;;15.20;3.73;;;;;;;10.45;58.84;100232.72;5110377;28;19959;-65
2023/04/13 10:49:36;;;;;;;12.05;3.20;;;;;;;10.50;59.30;100232.03;5120279;28;20044;-65
2023/04/13 10:52:04;;;;;;;14.10;3.47;;;;;;;10.51;58.88;100241.72;5113606;28;20083;-66
2023/04/13 10:54:34;;;;;;;9.48;2.92;;;;;;;10.57;59.37;100235.41;5114121;28;20056;-65
2023/04/13 10:57:05;;;;;;;9.25;2.50;;;;;;;10.57;58.90;100251.50;5116761;28;20492;-65
2023/04/13 10:59:40;;;;;;;7.88;2.53;;;;;;;10.57;58.80;100249.66;5117114;28;20051;-64
2023/04/13 11:02:25;;;;;;;11.55;2.88;;;;;;;10.56;58.45;100264.13;5120092;28;20062;-66
2023/04/13 11:04:53;;;;;;;10.10;3.33;;;;;;;10.56;58.87;100258.75;5119390;28;20040;-64
2023/04/13 11:07:24;;;;;;;7.53;2.30;;;;;;;10.61;58.88;100263.44;5111321;28;20043;-66
2023/04/13 11:09:57;;;;;;;12.63;2.70;;;;;;;10.60;58.59;100261.78;5120426;28;20062;-66
2023/04/13 11:12:31;;;;;;;7.65;2.78;;;;;;;10.57;58.22;100270.31;5116070;28;20071;-66
2023/04/13 11:14:59;;;;;;;7.60;2.60;;;;;;;10.54;58.13;100257.38;5110329;28;20095;-66
2023/04/13 11:17:27;;;;;;;8.60;2.78;;;;;;;10.51;57.90;100255.97;5118048;28;20054;-66
2023/04/13 11:19:56;;;;;;;12.32;2.45;;;;;;;10.51;58.50;100255.97;5122935;28;20078;-65
2023/04/13 11:22:26;;;;;;;7.63;2.28;;;;;;;10.53;58.34;100261.09;5117881;28;20466;-67
2023/04/13 11:25:06;;;;;;;8.70;2.65;;;;;;;10.47;58.29;100240.56;5122735;28;20052;-66
2023/04/13 11:27:36;;;;;;;10.48;2.92;;;;;;;10.58;57.83;100262.03;5120167;28;20047;-66
2023/04/13 11:30:06;;;;;;;9.65;3.28;;;;;;;10.64;58.25;100268.31;5121118;28;20055;-65
2023/04/13 11:32:34;;;;;;;7.57;2.58;;;;;;;10.66;57.81;100268.91;5122632;28;20130;-67
2023/04/13 11:35:07;;;;;;;14.25;2.92;;;;;;;10.66;56.70;100264.34;5121057;28;20039;-66
2023/04/13 11:37:38;;;;;;;9.77;3.05;;;;;;;10.76;57.45;100274.50;5119643;28;20044;-67
2023/04/13 11:40:13;;;;;;;11.50;3.13;;;;;;;10.73;57.45;100275.78;5121138;28;20552;-66